Huvudsida
METAR-TAF:

METAR-TAF

Flygplatser :

Stockholm-Bromma flygplats

Stockholm, Sverige

latitud: 59-21N, longitud: 017-57E, höjd: 14 m

Aktuellt väderrapport

Denna rapport gjordes för 11 minuter sedan, klockan 13:50 UTC
Vind 19 kt från väst/sydväst, varierande mellan sydväst och väst
Temperatur 20°C
Fuktighet 35%
Tryck 1005 hPa
Sikt 10 km eller mer
Inga moln under 1 500 m eller inga cumulonimbus

METAR: ESSB 191350Z 25019KT 220V280 CAVOK 20/04 Q1005

Tid: 16:01 (14:01 UTC)

Väderprognos

Denna rapport gjordes för 2 timmar och 31 minuter sedan, klockan 11:30 UTC
Prognos gäller från 19 kl. 12 UTC till 19 kl. 20 UTC
Vind 16 kt från väst/sydväst i byarna ända upp till 28 kt
Sikt 10 km eller mer
Inga moln under 1 500 m eller inga cumulonimbus

TAF: ESSB 191130Z 1912/1920 25016G28KT CAVOK

Aktuella väderrapporter och prognoser från 4000 flygplatser (METAR- och TAF-rapporter).

De tillgängliga stationerna syns som gula och röda prickar på kartan.

För musen över prickarna för att se namnen på stationerna.

Klicka sedan för att få väderrapporter och prognoser.

För att ändra kartan: Klicka på de gröna knapparna med ett svart kors på för att zooma in; den gröna knappen med ett streck på för att zooma ut; eller på de gröna pilarna för angränsande kartor.


METAR-TAF: